createdAt,value
2022-10-07T00:01:09.198Z,25.05
2022-10-07T00:03:36.440Z,22.70
2022-10-07T00:06:08.227Z,21.13
2022-10-07T00:08:37.204Z,20.42
2022-10-07T00:11:10.574Z,24.33
2022-10-07T00:13:39.475Z,22.63
2022-10-07T00:16:14.782Z,26.25
2022-10-07T00:18:42.455Z,20.13
2022-10-07T00:21:12.177Z,24.95
2022-10-07T00:23:40.454Z,20.10
2022-10-07T00:26:11.043Z,18.25
2022-10-07T00:28:40.520Z,20.23
2022-10-07T00:31:10.811Z,21.23
2022-10-07T00:33:41.391Z,20.67
2022-10-07T00:36:20.616Z,18.63
2022-10-07T00:38:57.831Z,22.35
2022-10-07T00:41:28.737Z,26.10
2022-10-07T00:43:56.710Z,23.60
2022-10-07T00:46:31.447Z,19.55
2022-10-07T00:49:03.193Z,24.17
2022-10-07T00:51:33.704Z,30.20
2022-10-07T00:54:07.512Z,26.52
2022-10-07T00:56:35.252Z,22.30
2022-10-07T00:59:02.719Z,25.17
2022-10-07T01:01:31.537Z,25.92
2022-10-07T01:03:58.968Z,24.65
2022-10-07T01:06:26.188Z,24.05
2022-10-07T01:08:54.487Z,26.40
2022-10-07T01:11:31.535Z,23.08
2022-10-07T01:14:03.932Z,25.70
2022-10-07T01:16:45.784Z,27.30
2022-10-07T01:19:16.457Z,26.63
2022-10-07T01:22:01.993Z,27.13
2022-10-07T01:24:51.050Z,27.05
2022-10-07T01:27:22.000Z,25.60
2022-10-07T01:30:11.472Z,24.95
2022-10-07T01:32:44.639Z,26.35
2022-10-07T01:35:32.996Z,23.58
2022-10-07T01:38:05.786Z,24.98
2022-10-07T01:40:51.743Z,24.73
2022-10-07T01:43:22.698Z,28.80
2022-10-07T01:45:52.423Z,26.15
2022-10-07T01:48:20.054Z,24.58
2022-10-07T01:50:49.946Z,25.00
2022-10-07T01:56:13.002Z,23.65
2022-10-07T01:58:50.515Z,22.63
2022-10-07T02:01:34.400Z,25.42
2022-10-07T02:04:38.946Z,27.50
2022-10-07T02:07:43.558Z,25.45
2022-10-07T02:10:27.632Z,25.05
2022-10-07T02:13:12.673Z,29.48
2022-10-07T02:16:02.487Z,24.88
2022-10-07T02:18:32.895Z,30.85
2022-10-07T02:21:10.055Z,27.77
2022-10-07T02:23:40.879Z,27.00
2022-10-07T02:26:13.583Z,30.45
2022-10-07T02:28:43.917Z,33.28
2022-10-07T02:31:17.962Z,28.15
2022-10-07T02:33:47.483Z,29.83
2022-10-07T02:36:22.511Z,26.48
2022-10-07T02:38:49.960Z,31.73
2022-10-07T02:41:41.920Z,26.35
2022-10-07T02:44:26.091Z,27.45
2022-10-07T02:47:04.540Z,28.88
2022-10-07T02:49:38.648Z,27.92
2022-10-07T02:52:10.296Z,26.30
2022-10-07T02:55:00.906Z,26.50
2022-10-07T02:57:33.876Z,26.92
2022-10-07T03:00:04.317Z,28.33
2022-10-07T03:03:07.396Z,25.58
2022-10-07T03:05:49.583Z,25.67
2022-10-07T03:08:17.870Z,30.92
2022-10-07T03:10:45.731Z,24.63
2022-10-07T03:13:15.839Z,28.00
2022-10-07T03:15:48.931Z,28.05
2022-10-07T03:18:26.901Z,31.90
2022-10-07T03:21:04.321Z,27.13
2022-10-07T03:23:31.737Z,23.60
2022-10-07T03:25:59.930Z,25.00
2022-10-07T03:28:30.199Z,26.75
2022-10-07T03:31:05.970Z,16.92
2022-10-07T03:33:35.156Z,10.90
2022-10-07T03:36:02.426Z,8.93
2022-10-07T03:38:30.271Z,8.90
2022-10-07T03:40:57.944Z,9.20
2022-10-07T03:43:26.564Z,7.90
2022-10-07T03:45:54.160Z,10.05
2022-10-07T03:48:21.922Z,10.32
2022-10-07T03:50:52.788Z,7.55
2022-10-07T03:53:22.359Z,8.10
2022-10-07T03:55:49.920Z,10.13
2022-10-07T03:58:17.154Z,11.13
2022-10-07T04:00:46.039Z,7.28
2022-10-07T04:03:14.408Z,8.25
2022-10-07T04:05:42.479Z,9.93
2022-10-07T04:08:12.110Z,8.63
2022-10-07T04:10:39.344Z,10.02
2022-10-07T04:13:06.780Z,8.98
2022-10-07T04:15:34.744Z,8.10
2022-10-07T04:18:01.910Z,9.98
2022-10-07T04:20:30.385Z,8.02
2022-10-07T04:22:57.933Z,8.95
2022-10-07T04:25:34.198Z,8.85
2022-10-07T04:28:08.753Z,9.63
2022-10-07T04:30:40.265Z,8.02
2022-10-07T04:33:08.655Z,9.15
2022-10-07T04:35:40.287Z,8.93
2022-10-07T04:38:10.511Z,9.88
2022-10-07T04:40:41.760Z,8.82
2022-10-07T04:43:20.057Z,9.73
2022-10-07T04:46:02.049Z,10.02
2022-10-07T04:48:33.768Z,14.98
2022-10-07T04:51:07.986Z,12.32
2022-10-07T04:53:37.404Z,13.80
2022-10-07T04:56:06.666Z,18.33
2022-10-07T04:58:34.120Z,14.82
2022-10-07T05:01:08.426Z,14.13
2022-10-07T05:03:39.893Z,15.32
2022-10-07T05:06:09.183Z,17.33
2022-10-07T05:08:38.666Z,15.48
2022-10-07T05:11:06.528Z,18.45
2022-10-07T05:13:41.647Z,18.88
2022-10-07T05:16:12.300Z,17.10
2022-10-07T05:18:41.203Z,22.65
2022-10-07T05:21:12.416Z,19.98
2022-10-07T05:23:44.266Z,23.10
2022-10-07T05:26:16.125Z,18.00
2022-10-07T05:28:49.613Z,21.30
2022-10-07T05:31:22.848Z,17.63
2022-10-07T05:33:54.275Z,19.00
2022-10-07T05:38:58.314Z,21.15
2022-10-07T05:41:38.427Z,19.17
2022-10-07T05:44:12.429Z,22.13
2022-10-07T05:46:40.410Z,18.75
2022-10-07T05:49:08.549Z,18.30
2022-10-07T05:51:37.063Z,21.15
2022-10-07T05:54:06.358Z,21.25
2022-10-07T05:56:42.886Z,20.35
2022-10-07T05:59:13.837Z,22.27
2022-10-07T06:01:43.377Z,22.95
2022-10-07T06:04:16.212Z,27.08
2022-10-07T06:06:47.355Z,20.25
2022-10-07T06:09:33.770Z,21.20
2022-10-07T06:12:24.321Z,24.50
2022-10-07T06:14:53.413Z,23.40
2022-10-07T06:17:21.070Z,29.08
2022-10-07T06:19:50.564Z,23.48
2022-10-07T06:22:19.838Z,27.05
2022-10-07T06:24:48.244Z,29.88
2022-10-07T06:27:16.000Z,22.70
2022-10-07T06:29:44.477Z,28.88
2022-10-07T06:32:14.394Z,23.55
2022-10-07T06:34:45.324Z,23.75
2022-10-07T06:37:13.723Z,22.00
2022-10-07T06:39:41.451Z,23.20
2022-10-07T06:42:10.534Z,23.02
2022-10-07T06:45:16.218Z,25.63
2022-10-07T06:47:43.916Z,24.67
2022-10-07T06:50:11.292Z,22.35
2022-10-07T06:52:43.199Z,23.92
2022-10-07T06:55:12.076Z,23.52
2022-10-07T06:57:45.613Z,20.73
2022-10-07T07:00:15.475Z,22.88
2022-10-07T07:02:43.861Z,24.48
2022-10-07T07:05:14.758Z,20.05
2022-10-07T07:07:43.981Z,19.05
2022-10-07T07:10:12.118Z,22.65
2022-10-07T07:12:42.605Z,21.88
2022-10-07T07:15:11.030Z,16.95
2022-10-07T07:17:40.631Z,18.52
2022-10-07T07:20:10.301Z,16.23
2022-10-07T07:22:39.085Z,23.50
2022-10-07T07:25:10.176Z,23.08
2022-10-07T07:27:38.747Z,20.17
2022-10-07T07:30:07.689Z,20.08
2022-10-07T07:32:35.477Z,17.50
2022-10-07T07:35:05.389Z,19.58
2022-10-07T07:37:33.763Z,19.92
2022-10-07T07:40:01.197Z,17.88
2022-10-07T07:42:28.392Z,14.40
2022-10-07T07:44:55.766Z,27.98
2022-10-07T07:47:23.125Z,17.13
2022-10-07T07:49:50.959Z,18.90
2022-10-07T07:52:25.771Z,16.17
2022-10-07T07:54:58.417Z,14.68
2022-10-07T07:57:27.466Z,15.43
2022-10-07T07:59:56.046Z,16.75
2022-10-07T08:02:24.176Z,16.52
2022-10-07T08:04:52.478Z,21.08
2022-10-07T08:07:19.996Z,23.67
2022-10-07T08:09:49.738Z,21.27
2022-10-07T08:12:16.857Z,18.98
2022-10-07T08:14:44.207Z,17.73
2022-10-07T08:17:12.673Z,16.95
2022-10-07T08:19:40.119Z,22.92
2022-10-07T08:22:08.948Z,14.80
2022-10-07T08:24:36.470Z,16.85
2022-10-07T08:27:03.977Z,16.35
2022-10-07T08:29:31.169Z,18.83
2022-10-07T08:31:58.530Z,18.42
2022-10-07T08:34:25.578Z,19.55
2022-10-07T08:36:52.737Z,16.65
2022-10-07T08:39:19.706Z,15.07
2022-10-07T08:41:58.825Z,16.80
2022-10-07T08:44:34.412Z,14.88
2022-10-07T08:47:06.541Z,17.48
2022-10-07T08:49:57.627Z,12.93
2022-10-07T08:52:35.371Z,12.25
2022-10-07T08:55:03.105Z,11.80
2022-10-07T08:58:05.675Z,13.32
2022-10-07T09:00:59.527Z,11.40
2022-10-07T09:04:02.563Z,13.45
2022-10-07T09:06:42.730Z,15.00
2022-10-07T09:09:22.349Z,10.43
2022-10-07T09:11:51.150Z,10.15
2022-10-07T09:14:42.840Z,10.10
2022-10-07T09:17:22.398Z,12.35
2022-10-07T09:19:52.522Z,10.30
2022-10-07T09:22:22.370Z,14.73
2022-10-07T09:24:56.530Z,11.38
2022-10-07T09:27:24.762Z,13.75
2022-10-07T09:29:52.269Z,10.80
2022-10-07T09:32:20.383Z,10.50
2022-10-07T09:34:47.601Z,13.45
2022-10-07T09:37:26.783Z,11.85
2022-10-07T09:39:57.928Z,17.05
2022-10-07T09:42:46.024Z,10.02
2022-10-07T09:45:25.229Z,12.45
2022-10-07T09:47:55.593Z,10.85
2022-10-07T09:50:43.709Z,9.18
2022-10-07T09:53:21.811Z,9.60
2022-10-07T09:55:50.524Z,11.75
2022-10-07T09:58:19.085Z,15.05
2022-10-07T10:00:48.997Z,10.02
2022-10-07T10:03:17.603Z,11.07
2022-10-07T10:06:00.161Z,13.32
2022-10-07T10:08:32.007Z,10.95
2022-10-07T10:11:01.802Z,11.77
2022-10-07T10:13:38.621Z,9.95
2022-10-07T10:16:07.652Z,12.13
2022-10-07T10:18:53.149Z,13.88
2022-10-07T10:21:27.484Z,8.88
2022-10-07T10:24:06.276Z,9.95
2022-10-07T10:27:06.481Z,11.10
2022-10-07T10:30:05.594Z,9.27
2022-10-07T10:33:04.684Z,13.15
2022-10-07T10:35:39.510Z,9.05
2022-10-07T10:38:32.979Z,8.57
2022-10-07T10:41:30.420Z,9.15
2022-10-07T10:44:24.227Z,12.27
2022-10-07T10:47:04.164Z,8.45
2022-10-07T10:50:15.991Z,9.07
2022-10-07T10:52:56.491Z,9.73
2022-10-07T10:55:45.221Z,8.07
2022-10-07T10:58:45.125Z,8.20
2022-10-07T11:01:32.377Z,9.10
2022-10-07T11:04:29.507Z,8.55
2022-10-07T11:07:09.467Z,7.97
2022-10-07T11:09:48.773Z,7.70
2022-10-07T11:12:37.592Z,6.82
2022-10-07T11:15:11.982Z,8.07
2022-10-07T11:17:40.070Z,8.95
2022-10-07T11:20:21.775Z,7.90
2022-10-07T11:22:56.893Z,6.93
2022-10-07T11:28:44.771Z,7.97
2022-10-07T11:31:24.592Z,9.82
2022-10-07T11:36:58.499Z,7.88
2022-10-07T11:39:25.645Z,10.20
2022-10-07T11:42:16.098Z,8.90
2022-10-07T11:44:55.466Z,7.32
2022-10-07T11:47:26.574Z,7.57
2022-10-07T11:50:02.563Z,8.35
2022-10-07T11:52:38.020Z,7.10
2022-10-07T11:55:07.846Z,9.70
2022-10-07T12:00:25.622Z,11.15
2022-10-07T12:02:55.316Z,7.47
2022-10-07T12:05:34.198Z,8.00
2022-10-07T12:08:23.963Z,9.63
2022-10-07T12:11:12.775Z,6.93
2022-10-07T12:13:46.010Z,6.75
2022-10-07T12:16:52.955Z,9.27
2022-10-07T12:19:23.555Z,7.80
2022-10-07T12:22:00.228Z,12.68
2022-10-07T12:24:29.865Z,7.78
2022-10-07T12:29:32.415Z,10.02
2022-10-07T12:32:00.098Z,10.13
2022-10-07T12:34:39.574Z,6.18
2022-10-07T12:39:52.506Z,6.40
2022-10-07T12:42:20.271Z,7.07
2022-10-07T12:44:53.052Z,9.00
2022-10-07T12:47:28.265Z,6.57
2022-10-07T12:50:02.659Z,8.95
2022-10-07T12:52:54.894Z,6.28
2022-10-07T12:55:37.329Z,8.18
2022-10-07T12:58:47.780Z,6.80
2022-10-07T13:01:19.351Z,7.43
2022-10-07T13:04:10.499Z,9.15
2022-10-07T13:06:55.134Z,7.53
2022-10-07T13:09:56.366Z,8.23
2022-10-07T13:12:29.912Z,7.07
2022-10-07T13:15:02.168Z,7.70
2022-10-07T13:17:51.270Z,8.38
2022-10-07T13:20:37.748Z,9.43
2022-10-07T13:23:11.989Z,9.05
2022-10-07T13:25:45.707Z,6.35
2022-10-07T13:28:17.083Z,7.50
2022-10-07T13:30:46.015Z,6.68
2022-10-07T13:33:26.945Z,7.97
2022-10-07T13:36:06.831Z,6.43
2022-10-07T13:38:35.042Z,6.68
2022-10-07T13:41:07.928Z,6.95
2022-10-07T13:43:37.014Z,7.55
2022-10-07T13:46:08.274Z,7.13
2022-10-07T13:48:41.859Z,6.47
2022-10-07T13:51:29.663Z,17.90
2022-10-07T13:54:02.883Z,6.00
2022-10-07T13:56:40.794Z,6.03
2022-10-07T13:59:18.204Z,9.63
2022-10-07T14:01:48.784Z,6.05
2022-10-07T14:04:20.328Z,6.88
2022-10-07T14:06:56.322Z,5.88
2022-10-07T14:09:32.413Z,7.85
2022-10-07T14:12:09.690Z,6.22
2022-10-07T14:14:39.944Z,5.68
2022-10-07T14:17:19.685Z,6.60
2022-10-07T14:19:53.600Z,8.20
2022-10-07T14:22:29.160Z,7.03
2022-10-07T14:25:00.623Z,6.60
2022-10-07T14:27:39.709Z,6.80
2022-10-07T14:30:28.663Z,6.80
2022-10-07T14:33:25.349Z,10.98
2022-10-07T14:36:13.542Z,7.15
2022-10-07T14:38:42.428Z,7.10
2022-10-07T14:41:14.041Z,7.13
2022-10-07T14:43:44.998Z,6.20
2022-10-07T14:46:19.216Z,6.30
2022-10-07T14:48:47.186Z,6.47
2022-10-07T14:51:17.819Z,6.43
2022-10-07T14:53:49.292Z,6.93
2022-10-07T14:56:26.514Z,5.78
2022-10-07T14:58:54.826Z,6.60
2022-10-07T15:01:21.889Z,6.93
2022-10-07T15:03:50.333Z,11.63
2022-10-07T15:06:18.541Z,6.60
2022-10-07T15:08:46.764Z,6.28
2022-10-07T15:11:15.690Z,6.05
2022-10-07T15:13:48.872Z,6.72
2022-10-07T15:16:26.060Z,6.78
2022-10-07T15:18:53.602Z,7.20
2022-10-07T15:21:22.144Z,10.75
2022-10-07T15:23:53.475Z,8.15
2022-10-07T15:26:24.274Z,11.82
2022-10-07T15:28:54.488Z,7.30
2022-10-07T15:31:23.526Z,6.25
2022-10-07T15:33:50.996Z,6.15
2022-10-07T15:36:18.343Z,6.25
2022-10-07T15:38:45.423Z,6.55
2022-10-07T15:41:34.205Z,7.10
2022-10-07T15:44:07.207Z,8.27
2022-10-07T15:46:35.130Z,8.90
2022-10-07T15:49:03.643Z,6.45
2022-10-07T15:51:31.697Z,6.30
2022-10-07T15:53:58.732Z,7.45
2022-10-07T15:56:25.856Z,8.80
2022-10-07T15:58:53.399Z,6.70
2022-10-07T16:01:20.990Z,10.70
2022-10-07T16:03:49.379Z,9.15
2022-10-07T16:06:23.332Z,8.95
2022-10-07T16:08:53.378Z,9.00
2022-10-07T16:11:20.866Z,8.95
2022-10-07T16:13:49.085Z,7.35
2022-10-07T16:16:25.535Z,7.55
2022-10-07T16:18:54.969Z,8.98
2022-10-07T16:21:23.424Z,7.82
2022-10-07T16:24:04.073Z,7.53
2022-10-07T16:26:33.900Z,9.23
2022-10-07T16:29:21.324Z,9.68
2022-10-07T16:31:48.999Z,10.52
2022-10-07T16:34:17.245Z,10.32
2022-10-07T16:36:49.163Z,9.43
2022-10-07T16:39:21.541Z,9.27
2022-10-07T16:41:51.636Z,8.73
2022-10-07T16:44:19.652Z,8.98
2022-10-07T16:46:46.859Z,9.40
2022-10-07T16:49:18.194Z,10.38
2022-10-07T16:51:46.636Z,9.85
2022-10-07T16:54:17.171Z,8.60
2022-10-07T16:56:48.266Z,11.35
2022-10-07T16:59:24.461Z,9.57
2022-10-07T17:01:57.024Z,9.25
2022-10-07T17:04:25.432Z,11.10
2022-10-07T17:06:53.448Z,10.13
2022-10-07T17:09:22.072Z,12.65
2022-10-07T17:11:49.314Z,9.98
2022-10-07T17:14:19.139Z,10.77
2022-10-07T17:16:55.613Z,12.27
2022-10-07T17:19:25.007Z,13.07
2022-10-07T17:21:53.589Z,12.68
2022-10-07T17:24:22.399Z,14.82
2022-10-07T17:26:50.536Z,14.37
2022-10-07T17:29:20.072Z,14.35
2022-10-07T17:31:51.093Z,11.80
2022-10-07T17:34:20.586Z,14.93
2022-10-07T17:36:48.823Z,12.98
2022-10-07T17:39:17.421Z,11.50
2022-10-07T17:41:44.431Z,13.00
2022-10-07T17:44:12.518Z,14.23
2022-10-07T17:46:41.083Z,12.50
2022-10-07T17:49:11.655Z,13.25
2022-10-07T17:51:39.067Z,16.88
2022-10-07T17:54:06.828Z,15.85
2022-10-07T17:56:37.463Z,19.02
2022-10-07T17:59:05.575Z,13.57
2022-10-07T18:01:34.607Z,15.52
2022-10-07T18:04:07.291Z,19.70
2022-10-07T18:06:36.567Z,15.70
2022-10-07T18:09:08.223Z,16.13
2022-10-07T18:11:54.355Z,15.27
2022-10-07T18:14:40.487Z,16.55
2022-10-07T18:17:09.350Z,14.85
2022-10-07T18:19:36.727Z,18.08
2022-10-07T18:22:03.820Z,16.67
2022-10-07T18:24:31.136Z,15.88
2022-10-07T18:27:00.632Z,15.15
2022-10-07T18:29:30.516Z,15.77
2022-10-07T18:31:57.764Z,14.85
2022-10-07T18:34:25.220Z,16.73
2022-10-07T18:36:56.144Z,15.73
2022-10-07T18:39:24.193Z,65.82
2022-10-07T18:41:52.882Z,25.55
2022-10-07T18:44:20.030Z,15.10
2022-10-07T18:46:48.569Z,20.77
2022-10-07T18:49:16.776Z,14.88
2022-10-07T18:51:43.804Z,16.08
2022-10-07T18:54:10.982Z,17.35
2022-10-07T18:56:41.062Z,17.35
2022-10-07T18:59:10.173Z,18.25
2022-10-07T19:01:38.043Z,16.20
2022-10-07T19:04:06.667Z,17.42
2022-10-07T19:06:36.356Z,17.80
2022-10-07T19:09:09.131Z,17.38
2022-10-07T19:11:36.368Z,18.98
2022-10-07T19:14:03.988Z,15.30
2022-10-07T19:16:35.161Z,16.15
2022-10-07T19:19:05.284Z,15.25
2022-10-07T19:21:33.563Z,16.55
2022-10-07T19:24:01.898Z,15.93
2022-10-07T19:26:36.637Z,12.82
2022-10-07T19:29:05.588Z,15.48
2022-10-07T19:31:40.531Z,13.20
2022-10-07T19:34:14.507Z,14.05
2022-10-07T19:36:46.898Z,13.52
2022-10-07T19:39:17.497Z,15.23
2022-10-07T19:41:45.071Z,16.75
2022-10-07T19:44:13.060Z,15.07
2022-10-07T19:46:40.200Z,13.55
2022-10-07T19:49:09.429Z,18.15
2022-10-07T19:51:37.288Z,13.82
2022-10-07T19:54:10.045Z,14.02
2022-10-07T19:56:38.358Z,18.23
2022-10-07T19:59:07.535Z,18.80
2022-10-07T20:01:41.610Z,15.57
2022-10-07T20:04:14.925Z,18.90
2022-10-07T20:06:43.503Z,20.55
2022-10-07T20:09:13.300Z,16.88
2022-10-07T20:14:07.243Z,17.63
2022-10-07T20:16:34.812Z,16.77
2022-10-07T20:19:05.946Z,18.48
2022-10-07T20:21:35.853Z,19.50
2022-10-07T20:26:32.631Z,21.58
2022-10-07T20:29:01.928Z,18.77
2022-10-07T20:31:31.963Z,20.90
2022-10-07T20:34:00.322Z,19.77
2022-10-07T20:36:33.113Z,15.88
2022-10-07T20:39:21.397Z,13.93
2022-10-07T20:42:08.488Z,17.45
2022-10-07T20:44:39.040Z,13.70
2022-10-07T20:47:10.361Z,16.20
2022-10-07T20:49:41.385Z,15.88
2022-10-07T20:52:17.208Z,15.15
2022-10-07T20:54:45.131Z,16.17
2022-10-07T20:57:17.462Z,14.68
2022-10-07T20:59:44.983Z,14.15
2022-10-07T21:02:14.348Z,12.73
2022-10-07T21:04:41.926Z,17.10
2022-10-07T21:07:09.452Z,18.63
2022-10-07T21:09:36.855Z,16.35
2022-10-07T21:12:07.664Z,16.67
2022-10-07T21:14:35.926Z,16.33
2022-10-07T21:17:05.016Z,19.92
2022-10-07T21:19:33.042Z,17.27
2022-10-07T21:22:00.007Z,16.23
2022-10-07T21:24:27.122Z,21.95
2022-10-07T21:26:54.202Z,18.42
2022-10-07T21:29:21.187Z,17.92
2022-10-07T21:31:48.143Z,15.43
2022-10-07T21:34:15.200Z,15.75
2022-10-07T21:36:51.646Z,22.30
2022-10-07T21:39:20.850Z,18.67
2022-10-07T21:41:49.288Z,18.27
2022-10-07T21:44:16.567Z,16.60
2022-10-07T21:46:45.776Z,18.20
2022-10-07T21:49:14.640Z,20.98
2022-10-07T21:51:41.968Z,20.00
2022-10-07T21:54:13.764Z,17.08
2022-10-07T21:56:41.191Z,16.20
2022-10-07T21:59:08.134Z,17.25
2022-10-07T22:01:35.258Z,14.60
2022-10-07T22:04:03.097Z,17.05
2022-10-07T22:06:50.102Z,16.85
2022-10-07T22:09:20.325Z,15.52
2022-10-07T22:11:48.204Z,14.98
2022-10-07T22:14:15.174Z,15.15
2022-10-07T22:16:42.674Z,15.55
2022-10-07T22:19:11.310Z,15.93
2022-10-07T22:21:40.402Z,16.65
2022-10-07T22:24:08.789Z,15.68
2022-10-07T22:26:39.364Z,15.20
2022-10-07T22:29:10.150Z,20.35
2022-10-07T22:31:37.923Z,16.63
2022-10-07T22:34:06.199Z,15.43
2022-10-07T22:36:33.787Z,15.88
2022-10-07T22:39:01.622Z,15.60
2022-10-07T22:41:29.287Z,17.33
2022-10-07T22:43:56.841Z,15.77
2022-10-07T22:46:27.590Z,18.25
2022-10-07T22:48:56.670Z,15.93
2022-10-07T22:51:27.062Z,16.43
2022-10-07T22:53:55.416Z,15.18
2022-10-07T22:56:24.449Z,16.33
2022-10-07T22:59:00.112Z,15.73
2022-10-07T23:01:31.514Z,17.90
2022-10-07T23:04:01.008Z,17.05
2022-10-07T23:06:28.166Z,17.23
2022-10-07T23:08:55.339Z,16.55
2022-10-07T23:11:24.174Z,15.60
2022-10-07T23:13:51.855Z,16.88
2022-10-07T23:16:21.364Z,15.52
2022-10-07T23:18:49.337Z,17.08
2022-10-07T23:21:18.981Z,16.40
2022-10-07T23:23:49.113Z,19.00
2022-10-07T23:26:22.932Z,16.35
2022-10-07T23:28:52.265Z,17.95
2022-10-07T23:31:21.360Z,18.63
2022-10-07T23:33:51.725Z,15.23
2022-10-07T23:36:20.527Z,17.15
2022-10-07T23:38:49.330Z,17.75
2022-10-07T23:41:20.242Z,17.42
2022-10-07T23:43:55.703Z,15.70
2022-10-07T23:46:24.519Z,16.05
2022-10-07T23:48:52.128Z,16.02
2022-10-07T23:51:21.784Z,16.98
2022-10-07T23:53:49.611Z,17.60
2022-10-07T23:56:18.707Z,16.40
2022-10-07T23:58:45.781Z,18.75
